sensor_id;sensor_type;location;lat;lon;timestamp;temperature;humidity
10443;DHT22;5269;51.146;16.986;2023-05-07T00:00:25;8.60;99.90
10443;DHT22;5269;51.146;16.986;2023-05-07T00:02:53;8.60;99.90
10443;DHT22;5269;51.146;16.986;2023-05-07T00:05:20;8.60;99.90
10443;DHT22;5269;51.146;16.986;2023-05-07T00:07:47;8.60;99.90
10443;DHT22;5269;51.146;16.986;2023-05-07T00:10:15;8.60;99.90
10443;DHT22;5269;51.146;16.986;2023-05-07T00:12:42;8.60;99.90
10443;DHT22;5269;51.146;16.986;2023-05-07T00:15:09;8.70;99.90
10443;DHT22;5269;51.146;16.986;2023-05-07T00:17:36;8.70;99.90
10443;DHT22;5269;51.146;16.986;2023-05-07T00:20:04;8.60;99.90
10443;DHT22;5269;51.146;16.986;2023-05-07T00:22:32;8.60;99.90
10443;DHT22;5269;51.146;16.986;2023-05-07T00:24:58;8.60;99.90
10443;DHT22;5269;51.146;16.986;2023-05-07T00:27:27;8.60;99.90
10443;DHT22;5269;51.146;16.986;2023-05-07T00:29:54;8.60;99.90
10443;DHT22;5269;51.146;16.986;2023-05-07T00:32:21;8.60;99.90
10443;DHT22;5269;51.146;16.986;2023-05-07T00:34:48;8.60;99.90
10443;DHT22;5269;51.146;16.986;2023-05-07T00:37:16;8.60;99.90
10443;DHT22;5269;51.146;16.986;2023-05-07T00:39:43;8.60;99.90
10443;DHT22;5269;51.146;16.986;2023-05-07T00:42:10;8.50;99.90
10443;DHT22;5269;51.146;16.986;2023-05-07T00:44:38;8.60;99.90
10443;DHT22;5269;51.146;16.986;2023-05-07T00:47:06;8.70;99.90
10443;DHT22;5269;51.146;16.986;2023-05-07T00:49:38;8.70;99.90
10443;DHT22;5269;51.146;16.986;2023-05-07T00:52:06;8.60;99.90
10443;DHT22;5269;51.146;16.986;2023-05-07T00:54:34;8.60;99.90
10443;DHT22;5269;51.146;16.986;2023-05-07T00:57:02;8.60;99.90
10443;DHT22;5269;51.146;16.986;2023-05-07T00:59:30;8.60;99.90
10443;DHT22;5269;51.146;16.986;2023-05-07T01:01:58;8.60;99.90
10443;DHT22;5269;51.146;16.986;2023-05-07T01:04:26;8.60;99.90
10443;DHT22;5269;51.146;16.986;2023-05-07T01:06:54;8.60;99.90
10443;DHT22;5269;51.146;16.986;2023-05-07T01:09:22;8.60;99.90
10443;DHT22;5269;51.146;16.986;2023-05-07T01:11:51;8.60;99.90
10443;DHT22;5269;51.146;16.986;2023-05-07T01:14:18;8.60;99.90
10443;DHT22;5269;51.146;16.986;2023-05-07T01:16:46;8.50;99.90
10443;DHT22;5269;51.146;16.986;2023-05-07T01:19:18;8.60;99.90
10443;DHT22;5269;51.146;16.986;2023-05-07T01:21:47;8.60;99.90
10443;DHT22;5269;51.146;16.986;2023-05-07T01:24:16;8.60;99.90
10443;DHT22;5269;51.146;16.986;2023-05-07T01:26:43;8.50;99.90
10443;DHT22;5269;51.146;16.986;2023-05-07T01:29:10;8.50;99.90
10443;DHT22;5269;51.146;16.986;2023-05-07T01:31:38;8.50;99.90
10443;DHT22;5269;51.146;16.986;2023-05-07T01:34:08;8.50;99.90
10443;DHT22;5269;51.146;16.986;2023-05-07T01:36:37;8.50;99.90
10443;DHT22;5269;51.146;16.986;2023-05-07T01:39:06;8.50;99.90
10443;DHT22;5269;51.146;16.986;2023-05-07T01:41:35;8.50;99.90
10443;DHT22;5269;51.146;16.986;2023-05-07T01:44:03;8.40;99.90
10443;DHT22;5269;51.146;16.986;2023-05-07T01:46:30;8.40;99.90
10443;DHT22;5269;51.146;16.986;2023-05-07T01:48:58;8.50;99.90
10443;DHT22;5269;51.146;16.986;2023-05-07T01:51:25;8.40;99.90
10443;DHT22;5269;51.146;16.986;2023-05-07T01:53:53;8.40;99.90
10443;DHT22;5269;51.146;16.986;2023-05-07T01:56:22;8.50;99.90
10443;DHT22;5269;51.146;16.986;2023-05-07T01:58:51;8.50;99.90
10443;DHT22;5269;51.146;16.986;2023-05-07T02:01:18;8.40;99.90
10443;DHT22;5269;51.146;16.986;2023-05-07T02:03:45;8.50;99.90
10443;DHT22;5269;51.146;16.986;2023-05-07T02:06:12;8.40;99.90
10443;DHT22;5269;51.146;16.986;2023-05-07T02:08:39;8.40;99.90
10443;DHT22;5269;51.146;16.986;2023-05-07T02:11:06;8.40;99.90
10443;DHT22;5269;51.146;16.986;2023-05-07T02:13:33;8.40;99.90
10443;DHT22;5269;51.146;16.986;2023-05-07T02:16:03;8.40;99.90
10443;DHT22;5269;51.146;16.986;2023-05-07T02:18:31;8.50;99.90
10443;DHT22;5269;51.146;16.986;2023-05-07T02:20:58;8.40;99.90
10443;DHT22;5269;51.146;16.986;2023-05-07T02:23:25;8.40;99.90
10443;DHT22;5269;51.146;16.986;2023-05-07T02:25:52;8.40;99.90
10443;DHT22;5269;51.146;16.986;2023-05-07T02:28:19;8.40;99.90
10443;DHT22;5269;51.146;16.986;2023-05-07T02:30:46;8.40;99.90
10443;DHT22;5269;51.146;16.986;2023-05-07T02:33:15;8.40;99.90
10443;DHT22;5269;51.146;16.986;2023-05-07T02:35:41;8.40;99.90
10443;DHT22;5269;51.146;16.986;2023-05-07T02:38:09;8.50;99.90
10443;DHT22;5269;51.146;16.986;2023-05-07T02:40:36;8.30;99.90
10443;DHT22;5269;51.146;16.986;2023-05-07T02:43:05;8.30;99.90
10443;DHT22;5269;51.146;16.986;2023-05-07T02:45:32;8.30;99.90
10443;DHT22;5269;51.146;16.986;2023-05-07T02:47:59;8.30;99.90
10443;DHT22;5269;51.146;16.986;2023-05-07T02:50:30;8.30;99.90
10443;DHT22;5269;51.146;16.986;2023-05-07T02:52:58;8.20;99.90
10443;DHT22;5269;51.146;16.986;2023-05-07T02:55:25;8.20;99.90
10443;DHT22;5269;51.146;16.986;2023-05-07T02:57:52;8.20;99.90
10443;DHT22;5269;51.146;16.986;2023-05-07T03:00:20;8.20;99.90
10443;DHT22;5269;51.146;16.986;2023-05-07T03:02:47;8.20;99.90
10443;DHT22;5269;51.146;16.986;2023-05-07T03:05:14;8.30;99.90
10443;DHT22;5269;51.146;16.986;2023-05-07T03:07:42;8.20;99.90
10443;DHT22;5269;51.146;16.986;2023-05-07T03:10:10;8.20;99.90
10443;DHT22;5269;51.146;16.986;2023-05-07T03:12:37;8.30;99.90
10443;DHT22;5269;51.146;16.986;2023-05-07T03:15:05;8.20;99.90
10443;DHT22;5269;51.146;16.986;2023-05-07T03:17:32;8.30;99.90
10443;DHT22;5269;51.146;16.986;2023-05-07T03:19:59;8.30;99.90
10443;DHT22;5269;51.146;16.986;2023-05-07T03:22:26;8.20;99.90
10443;DHT22;5269;51.146;16.986;2023-05-07T03:24:54;8.30;99.90
10443;DHT22;5269;51.146;16.986;2023-05-07T03:27:21;8.20;99.90
10443;DHT22;5269;51.146;16.986;2023-05-07T03:29:48;8.30;99.90
10443;DHT22;5269;51.146;16.986;2023-05-07T03:32:15;8.30;99.90
10443;DHT22;5269;51.146;16.986;2023-05-07T03:34:42;8.30;99.90
10443;DHT22;5269;51.146;16.986;2023-05-07T03:37:09;8.30;99.90
10443;DHT22;5269;51.146;16.986;2023-05-07T03:39:36;8.30;99.90
10443;DHT22;5269;51.146;16.986;2023-05-07T03:42:04;8.30;99.90
10443;DHT22;5269;51.146;16.986;2023-05-07T03:44:31;8.30;99.90
10443;DHT22;5269;51.146;16.986;2023-05-07T03:46:58;8.30;99.90
10443;DHT22;5269;51.146;16.986;2023-05-07T03:49:25;8.20;99.90
10443;DHT22;5269;51.146;16.986;2023-05-07T03:51:52;8.20;99.90
10443;DHT22;5269;51.146;16.986;2023-05-07T03:54:19;8.20;99.90
10443;DHT22;5269;51.146;16.986;2023-05-07T03:56:46;8.20;99.90
10443;DHT22;5269;51.146;16.986;2023-05-07T03:59:14;8.30;99.90
10443;DHT22;5269;51.146;16.986;2023-05-07T04:01:41;8.20;99.90
10443;DHT22;5269;51.146;16.986;2023-05-07T04:04:08;8.20;99.90
10443;DHT22;5269;51.146;16.986;2023-05-07T04:06:35;8.20;99.90
10443;DHT22;5269;51.146;16.986;2023-05-07T04:09:02;8.20;99.90
10443;DHT22;5269;51.146;16.986;2023-05-07T04:11:29;8.20;99.90
10443;DHT22;5269;51.146;16.986;2023-05-07T04:13:56;8.10;99.90
10443;DHT22;5269;51.146;16.986;2023-05-07T04:16:25;8.10;99.90
10443;DHT22;5269;51.146;16.986;2023-05-07T04:18:52;8.00;99.90
10443;DHT22;5269;51.146;16.986;2023-05-07T04:21:20;8.00;99.90
10443;DHT22;5269;51.146;16.986;2023-05-07T04:23:47;8.00;99.90
10443;DHT22;5269;51.146;16.986;2023-05-07T04:26:14;8.10;99.90
10443;DHT22;5269;51.146;16.986;2023-05-07T04:28:42;8.10;99.90
10443;DHT22;5269;51.146;16.986;2023-05-07T04:31:09;8.00;99.90
10443;DHT22;5269;51.146;16.986;2023-05-07T04:33:37;7.90;99.90
10443;DHT22;5269;51.146;16.986;2023-05-07T04:36:04;8.00;99.90
10443;DHT22;5269;51.146;16.986;2023-05-07T04:38:31;8.00;99.90
10443;DHT22;5269;51.146;16.986;2023-05-07T04:41:02;8.00;99.90
10443;DHT22;5269;51.146;16.986;2023-05-07T04:43:30;8.00;99.90
10443;DHT22;5269;51.146;16.986;2023-05-07T04:45:57;8.10;99.90
10443;DHT22;5269;51.146;16.986;2023-05-07T04:48:24;8.20;99.90
10443;DHT22;5269;51.146;16.986;2023-05-07T04:50:53;8.20;99.90
10443;DHT22;5269;51.146;16.986;2023-05-07T04:53:20;8.30;99.90
10443;DHT22;5269;51.146;16.986;2023-05-07T04:55:48;8.30;99.90
10443;DHT22;5269;51.146;16.986;2023-05-07T04:58:15;8.30;99.90
10443;DHT22;5269;51.146;16.986;2023-05-07T05:00:45;8.40;99.90
10443;DHT22;5269;51.146;16.986;2023-05-07T05:03:12;8.40;99.90
10443;DHT22;5269;51.146;16.986;2023-05-07T05:05:39;8.50;99.90
10443;DHT22;5269;51.146;16.986;2023-05-07T05:08:07;8.60;99.90
10443;DHT22;5269;51.146;16.986;2023-05-07T05:10:34;8.60;99.90
10443;DHT22;5269;51.146;16.986;2023-05-07T05:13:01;8.60;99.90
10443;DHT22;5269;51.146;16.986;2023-05-07T05:15:28;8.50;99.90
10443;DHT22;5269;51.146;16.986;2023-05-07T05:17:55;8.50;99.90
10443;DHT22;5269;51.146;16.986;2023-05-07T05:20:22;8.50;99.90
10443;DHT22;5269;51.146;16.986;2023-05-07T05:22:49;8.50;99.90
10443;DHT22;5269;51.146;16.986;2023-05-07T05:25:17;8.40;99.90
10443;DHT22;5269;51.146;16.986;2023-05-07T05:27:44;8.50;99.90
10443;DHT22;5269;51.146;16.986;2023-05-07T05:30:12;8.50;99.90
10443;DHT22;5269;51.146;16.986;2023-05-07T05:32:39;8.60;99.90
10443;DHT22;5269;51.146;16.986;2023-05-07T05:35:07;8.60;99.90
10443;DHT22;5269;51.146;16.986;2023-05-07T05:37:34;8.50;99.90
10443;DHT22;5269;51.146;16.986;2023-05-07T05:40:03;8.50;99.90
10443;DHT22;5269;51.146;16.986;2023-05-07T05:42:31;8.50;99.90
10443;DHT22;5269;51.146;16.986;2023-05-07T05:44:58;8.60;99.90
10443;DHT22;5269;51.146;16.986;2023-05-07T05:47:25;8.50;99.90
10443;DHT22;5269;51.146;16.986;2023-05-07T05:49:52;8.60;99.90
10443;DHT22;5269;51.146;16.986;2023-05-07T05:52:19;8.60;99.90
10443;DHT22;5269;51.146;16.986;2023-05-07T05:54:45;8.70;99.90
10443;DHT22;5269;51.146;16.986;2023-05-07T05:57:12;8.70;99.90
10443;DHT22;5269;51.146;16.986;2023-05-07T05:59:41;8.70;99.90
10443;DHT22;5269;51.146;16.986;2023-05-07T06:02:07;8.60;99.90
10443;DHT22;5269;51.146;16.986;2023-05-07T06:04:34;8.70;99.90
10443;DHT22;5269;51.146;16.986;2023-05-07T06:07:01;8.70;99.90
10443;DHT22;5269;51.146;16.986;2023-05-07T06:09:28;8.80;99.90
10443;DHT22;5269;51.146;16.986;2023-05-07T06:11:55;8.90;99.90
10443;DHT22;5269;51.146;16.986;2023-05-07T06:14:22;8.90;99.90
10443;DHT22;5269;51.146;16.986;2023-05-07T06:16:50;8.80;99.90
10443;DHT22;5269;51.146;16.986;2023-05-07T06:19:17;8.80;99.90
10443;DHT22;5269;51.146;16.986;2023-05-07T06:21:48;8.80;99.90
10443;DHT22;5269;51.146;16.986;2023-05-07T06:24:15;8.90;99.90
10443;DHT22;5269;51.146;16.986;2023-05-07T06:26:42;9.00;99.90
10443;DHT22;5269;51.146;16.986;2023-05-07T06:29:09;9.00;99.90
10443;DHT22;5269;51.146;16.986;2023-05-07T06:31:36;9.00;99.90
10443;DHT22;5269;51.146;16.986;2023-05-07T06:34:04;9.00;99.90
10443;DHT22;5269;51.146;16.986;2023-05-07T06:36:31;9.00;99.90
10443;DHT22;5269;51.146;16.986;2023-05-07T06:38:58;9.00;99.90
10443;DHT22;5269;51.146;16.986;2023-05-07T06:41:25;9.00;99.90
10443;DHT22;5269;51.146;16.986;2023-05-07T06:43:52;8.80;99.90
10443;DHT22;5269;51.146;16.986;2023-05-07T06:46:19;8.80;99.90
10443;DHT22;5269;51.146;16.986;2023-05-07T06:48:46;8.70;99.90
10443;DHT22;5269;51.146;16.986;2023-05-07T06:51:14;8.70;99.90
10443;DHT22;5269;51.146;16.986;2023-05-07T06:53:41;8.50;99.90
10443;DHT22;5269;51.146;16.986;2023-05-07T06:56:09;8.50;99.90
10443;DHT22;5269;51.146;16.986;2023-05-07T06:58:36;8.50;99.90
10443;DHT22;5269;51.146;16.986;2023-05-07T07:01:03;8.60;99.90
10443;DHT22;5269;51.146;16.986;2023-05-07T07:03:30;8.60;99.90
10443;DHT22;5269;51.146;16.986;2023-05-07T07:05:57;8.60;99.90
10443;DHT22;5269;51.146;16.986;2023-05-07T07:08:26;8.60;99.90
10443;DHT22;5269;51.146;16.986;2023-05-07T07:10:53;8.60;99.90
10443;DHT22;5269;51.146;16.986;2023-05-07T07:13:20;8.70;99.90
10443;DHT22;5269;51.146;16.986;2023-05-07T07:15:47;8.70;99.90
10443;DHT22;5269;51.146;16.986;2023-05-07T07:18:14;8.60;99.90
10443;DHT22;5269;51.146;16.986;2023-05-07T07:20:41;8.70;99.90
10443;DHT22;5269;51.146;16.986;2023-05-07T07:23:10;8.70;99.90
10443;DHT22;5269;51.146;16.986;2023-05-07T07:25:38;8.80;99.90
10443;DHT22;5269;51.146;16.986;2023-05-07T07:28:05;8.90;99.90
10443;DHT22;5269;51.146;16.986;2023-05-07T07:30:32;9.00;99.90
10443;DHT22;5269;51.146;16.986;2023-05-07T07:32:59;9.10;99.90
10443;DHT22;5269;51.146;16.986;2023-05-07T07:35:28;9.30;99.90
10443;DHT22;5269;51.146;16.986;2023-05-07T07:37:55;9.50;99.90
10443;DHT22;5269;51.146;16.986;2023-05-07T07:40:22;9.60;99.90
10443;DHT22;5269;51.146;16.986;2023-05-07T07:42:50;9.60;99.90
10443;DHT22;5269;51.146;16.986;2023-05-07T07:45:17;9.70;99.90
10443;DHT22;5269;51.146;16.986;2023-05-07T07:47:44;9.60;99.90
10443;DHT22;5269;51.146;16.986;2023-05-07T07:50:11;9.40;99.90
10443;DHT22;5269;51.146;16.986;2023-05-07T07:52:38;9.40;99.90
10443;DHT22;5269;51.146;16.986;2023-05-07T07:55:07;9.40;99.90
10443;DHT22;5269;51.146;16.986;2023-05-07T07:57:34;9.40;99.90
10443;DHT22;5269;51.146;16.986;2023-05-07T08:00:03;9.30;99.90
10443;DHT22;5269;51.146;16.986;2023-05-07T08:02:32;9.30;99.90
10443;DHT22;5269;51.146;16.986;2023-05-07T08:04:59;9.20;99.90
10443;DHT22;5269;51.146;16.986;2023-05-07T08:07:26;9.20;99.90
10443;DHT22;5269;51.146;16.986;2023-05-07T08:09:53;9.20;99.90
10443;DHT22;5269;51.146;16.986;2023-05-07T08:12:20;9.20;99.90
10443;DHT22;5269;51.146;16.986;2023-05-07T08:14:47;9.30;99.90
10443;DHT22;5269;51.146;16.986;2023-05-07T08:17:16;9.40;99.90
10443;DHT22;5269;51.146;16.986;2023-05-07T08:19:43;9.40;99.90
10443;DHT22;5269;51.146;16.986;2023-05-07T08:22:10;9.40;99.90
10443;DHT22;5269;51.146;16.986;2023-05-07T08:24:37;9.30;99.90
10443;DHT22;5269;51.146;16.986;2023-05-07T08:27:04;9.30;99.90
10443;DHT22;5269;51.146;16.986;2023-05-07T08:29:31;9.20;99.90
10443;DHT22;5269;51.146;16.986;2023-05-07T08:32:01;9.20;99.90
10443;DHT22;5269;51.146;16.986;2023-05-07T08:34:29;9.20;99.90
10443;DHT22;5269;51.146;16.986;2023-05-07T08:36:56;9.30;99.90
10443;DHT22;5269;51.146;16.986;2023-05-07T08:39:26;9.40;99.90
10443;DHT22;5269;51.146;16.986;2023-05-07T08:41:55;9.50;99.90
10443;DHT22;5269;51.146;16.986;2023-05-07T08:44:23;9.50;99.90
10443;DHT22;5269;51.146;16.986;2023-05-07T08:46:53;9.40;99.90
10443;DHT22;5269;51.146;16.986;2023-05-07T08:49:22;9.40;99.90
10443;DHT22;5269;51.146;16.986;2023-05-07T08:51:51;9.30;99.90
10443;DHT22;5269;51.146;16.986;2023-05-07T08:54:18;9.20;99.90
10443;DHT22;5269;51.146;16.986;2023-05-07T08:56:47;9.10;99.90
10443;DHT22;5269;51.146;16.986;2023-05-07T08:59:14;9.10;99.90
10443;DHT22;5269;51.146;16.986;2023-05-07T09:01:41;9.00;99.90
10443;DHT22;5269;51.146;16.986;2023-05-07T09:04:08;8.90;99.90
10443;DHT22;5269;51.146;16.986;2023-05-07T09:06:35;8.80;99.90
10443;DHT22;5269;51.146;16.986;2023-05-07T09:09:04;8.70;99.90
10443;DHT22;5269;51.146;16.986;2023-05-07T09:11:31;8.60;99.90
10443;DHT22;5269;51.146;16.986;2023-05-07T09:13:58;8.70;99.90
10443;DHT22;5269;51.146;16.986;2023-05-07T09:16:28;8.80;99.90
10443;DHT22;5269;51.146;16.986;2023-05-07T09:18:57;9.00;99.90
10443;DHT22;5269;51.146;16.986;2023-05-07T09:21:24;9.30;99.90
10443;DHT22;5269;51.146;16.986;2023-05-07T09:23:55;9.40;99.90
10443;DHT22;5269;51.146;16.986;2023-05-07T09:26:28;9.40;99.90
10443;DHT22;5269;51.146;16.986;2023-05-07T09:36:18;9.30;99.90
10443;DHT22;5269;51.146;16.986;2023-05-07T09:38:45;9.40;99.90
10443;DHT22;5269;51.146;16.986;2023-05-07T09:41:13;9.50;99.90
10443;DHT22;5269;51.146;16.986;2023-05-07T09:43:41;9.70;99.90
10443;DHT22;5269;51.146;16.986;2023-05-07T09:46:12;9.60;99.90
10443;DHT22;5269;51.146;16.986;2023-05-07T09:48:41;9.60;99.90
10443;DHT22;5269;51.146;16.986;2023-05-07T09:51:20;9.80;99.90
10443;DHT22;5269;51.146;16.986;2023-05-07T09:53:48;10.00;99.90
10443;DHT22;5269;51.146;16.986;2023-05-07T09:56:18;10.30;99.90
10443;DHT22;5269;51.146;16.986;2023-05-07T09:58:47;10.50;99.90
10443;DHT22;5269;51.146;16.986;2023-05-07T10:01:17;10.60;99.90
10443;DHT22;5269;51.146;16.986;2023-05-07T10:03:51;10.70;1.00
10443;DHT22;5269;51.146;16.986;2023-05-07T10:06:23;10.70;99.90
10443;DHT22;5269;51.146;16.986;2023-05-07T10:08:52;10.60;28.30
10443;DHT22;5269;51.146;16.986;2023-05-07T10:11:27;10.80;1.00
10443;DHT22;5269;51.146;16.986;2023-05-07T10:13:56;11.00;99.90
10443;DHT22;5269;51.146;16.986;2023-05-07T10:16:23;11.10;99.90
10443;DHT22;5269;51.146;16.986;2023-05-07T10:18:53;11.10;87.20
10443;DHT22;5269;51.146;16.986;2023-05-07T10:21:23;11.30;99.90
10443;DHT22;5269;51.146;16.986;2023-05-07T10:26:27;11.00;1.00
10443;DHT22;5269;51.146;16.986;2023-05-07T10:29:03;10.60;1.00
10443;DHT22;5269;51.146;16.986;2023-05-07T10:31:55;10.40;99.90
10443;DHT22;5269;51.146;16.986;2023-05-07T10:34:27;10.50;1.00
10443;DHT22;5269;51.146;16.986;2023-05-07T10:37:00;10.70;99.90
10443;DHT22;5269;51.146;16.986;2023-05-07T10:44:29;11.20;1.00
10443;DHT22;5269;51.146;16.986;2023-05-07T10:47:04;11.00;1.00
10443;DHT22;5269;51.146;16.986;2023-05-07T10:49:37;10.90;1.00
10443;DHT22;5269;51.146;16.986;2023-05-07T10:52:15;10.90;1.00
10443;DHT22;5269;51.146;16.986;2023-05-07T10:54:44;10.90;1.00
10443;DHT22;5269;51.146;16.986;2023-05-07T10:57:33;10.80;99.90
10443;DHT22;5269;51.146;16.986;2023-05-07T11:00:41;10.70;99.90
10443;DHT22;5269;51.146;16.986;2023-05-07T11:03:08;10.70;99.90
10443;DHT22;5269;51.146;16.986;2023-05-07T11:05:36;10.70;1.00
10443;DHT22;5269;51.146;16.986;2023-05-07T11:13:14;11.10;1.00
10443;DHT22;5269;51.146;16.986;2023-05-07T11:15:44;11.30;1.00
10443;DHT22;5269;51.146;16.986;2023-05-07T11:18:13;11.30;1.00
10443;DHT22;5269;51.146;16.986;2023-05-07T11:20:54;11.10;1.00
10443;DHT22;5269;51.146;16.986;2023-05-07T11:26:47;11.10;1.00
10443;DHT22;5269;51.146;16.986;2023-05-07T11:29:16;11.10;1.00
10443;DHT22;5269;51.146;16.986;2023-05-07T11:31:48;11.30;1.00
10443;DHT22;5269;51.146;16.986;2023-05-07T11:34:15;11.20;1.00
10443;DHT22;5269;51.146;16.986;2023-05-07T11:36:50;11.10;1.00
10443;DHT22;5269;51.146;16.986;2023-05-07T11:39:24;11.00;1.00
10443;DHT22;5269;51.146;16.986;2023-05-07T11:41:51;11.00;1.00
10443;DHT22;5269;51.146;16.986;2023-05-07T11:44:18;11.10;1.00
10443;DHT22;5269;51.146;16.986;2023-05-07T11:46:47;11.00;1.00
10443;DHT22;5269;51.146;16.986;2023-05-07T11:49:15;11.10;1.00
10443;DHT22;5269;51.146;16.986;2023-05-07T11:51:44;11.30;1.00
10443;DHT22;5269;51.146;16.986;2023-05-07T11:54:15;11.30;1.00
10443;DHT22;5269;51.146;16.986;2023-05-07T11:56:44;11.40;1.00
10443;DHT22;5269;51.146;16.986;2023-05-07T11:59:11;11.40;1.00
10443;DHT22;5269;51.146;16.986;2023-05-07T12:01:38;11.30;1.00
10443;DHT22;5269;51.146;16.986;2023-05-07T12:04:07;11.30;1.00
10443;DHT22;5269;51.146;16.986;2023-05-07T12:06:36;11.30;99.90
10443;DHT22;5269;51.146;16.986;2023-05-07T12:09:04;11.30;1.00
10443;DHT22;5269;51.146;16.986;2023-05-07T12:11:32;11.60;1.00
10443;DHT22;5269;51.146;16.986;2023-05-07T12:14:00;11.80;99.90
10443;DHT22;5269;51.146;16.986;2023-05-07T12:16:27;11.80;99.90
10443;DHT22;5269;51.146;16.986;2023-05-07T12:18:55;11.90;99.90
10443;DHT22;5269;51.146;16.986;2023-05-07T12:21:25;11.80;77.50
10443;DHT22;5269;51.146;16.986;2023-05-07T12:23:52;11.60;99.90
10443;DHT22;5269;51.146;16.986;2023-05-07T12:26:19;11.50;99.90
10443;DHT22;5269;51.146;16.986;2023-05-07T12:28:47;11.30;1.00
10443;DHT22;5269;51.146;16.986;2023-05-07T12:31:14;11.40;1.00
10443;DHT22;5269;51.146;16.986;2023-05-07T12:33:42;11.50;1.00
10443;DHT22;5269;51.146;16.986;2023-05-07T12:36:12;11.70;1.00
10443;DHT22;5269;51.146;16.986;2023-05-07T12:38:41;11.70;99.90
10443;DHT22;5269;51.146;16.986;2023-05-07T12:41:09;11.80;99.90
10443;DHT22;5269;51.146;16.986;2023-05-07T12:43:36;11.80;99.90
10443;DHT22;5269;51.146;16.986;2023-05-07T12:46:05;11.70;99.90
10443;DHT22;5269;51.146;16.986;2023-05-07T12:48:32;11.50;99.90
10443;DHT22;5269;51.146;16.986;2023-05-07T12:51:00;11.50;99.90
10443;DHT22;5269;51.146;16.986;2023-05-07T12:53:28;11.50;1.00
10443;DHT22;5269;51.146;16.986;2023-05-07T12:55:58;11.50;99.90
10443;DHT22;5269;51.146;16.986;2023-05-07T12:58:26;11.70;99.90
10443;DHT22;5269;51.146;16.986;2023-05-07T13:00:54;11.80;99.90
10443;DHT22;5269;51.146;16.986;2023-05-07T13:03:25;11.90;44.90
10443;DHT22;5269;51.146;16.986;2023-05-07T13:05:54;12.00;1.00
10443;DHT22;5269;51.146;16.986;2023-05-07T13:08:29;11.90;99.90
10443;DHT22;5269;51.146;16.986;2023-05-07T13:10:59;11.90;99.90
10443;DHT22;5269;51.146;16.986;2023-05-07T13:13:28;11.80;99.90
10443;DHT22;5269;51.146;16.986;2023-05-07T13:15:55;11.80;99.90
10443;DHT22;5269;51.146;16.986;2023-05-07T13:18:23;11.80;99.90
10443;DHT22;5269;51.146;16.986;2023-05-07T13:20:50;11.70;99.90
10443;DHT22;5269;51.146;16.986;2023-05-07T13:23:18;11.60;94.90
10443;DHT22;5269;51.146;16.986;2023-05-07T13:25:45;11.70;98.30
10443;DHT22;5269;51.146;16.986;2023-05-07T13:28:13;11.70;75.50
10443;DHT22;5269;51.146;16.986;2023-05-07T13:30:40;11.60;1.00
10443;DHT22;5269;51.146;16.986;2023-05-07T13:33:07;11.40;99.90
10443;DHT22;5269;51.146;16.986;2023-05-07T13:35:35;11.30;99.90
10443;DHT22;5269;51.146;16.986;2023-05-07T13:38:02;11.10;1.00
10443;DHT22;5269;51.146;16.986;2023-05-07T13:40:29;11.00;1.00
10443;DHT22;5269;51.146;16.986;2023-05-07T13:42:57;11.00;1.00
10443;DHT22;5269;51.146;16.986;2023-05-07T13:45:26;10.90;1.00
10443;DHT22;5269;51.146;16.986;2023-05-07T13:47:55;11.00;1.00
10443;DHT22;5269;51.146;16.986;2023-05-07T13:50:22;11.00;1.00
10443;DHT22;5269;51.146;16.986;2023-05-07T13:52:49;11.10;1.00
10443;DHT22;5269;51.146;16.986;2023-05-07T13:55:17;11.20;1.00
10443;DHT22;5269;51.146;16.986;2023-05-07T13:57:44;11.20;99.90
10443;DHT22;5269;51.146;16.986;2023-05-07T14:00:12;11.20;1.00
10443;DHT22;5269;51.146;16.986;2023-05-07T14:02:40;11.10;1.00
10443;DHT22;5269;51.146;16.986;2023-05-07T14:05:08;11.10;99.90
10443;DHT22;5269;51.146;16.986;2023-05-07T14:07:35;11.10;99.90
10443;DHT22;5269;51.146;16.986;2023-05-07T14:10:03;11.10;99.90
10443;DHT22;5269;51.146;16.986;2023-05-07T14:12:30;11.10;99.90
10443;DHT22;5269;51.146;16.986;2023-05-07T14:14:56;11.00;99.90
10443;DHT22;5269;51.146;16.986;2023-05-07T14:17:23;11.00;99.90
10443;DHT22;5269;51.146;16.986;2023-05-07T14:19:54;11.00;99.90
10443;DHT22;5269;51.146;16.986;2023-05-07T14:22:21;11.00;99.90
10443;DHT22;5269;51.146;16.986;2023-05-07T14:24:48;10.90;99.90
10443;DHT22;5269;51.146;16.986;2023-05-07T14:27:15;10.90;1.00
10443;DHT22;5269;51.146;16.986;2023-05-07T14:29:44;10.80;1.00
10443;DHT22;5269;51.146;16.986;2023-05-07T14:32:16;10.70;1.00
10443;DHT22;5269;51.146;16.986;2023-05-07T14:34:43;10.80;1.00
10443;DHT22;5269;51.146;16.986;2023-05-07T14:37:12;10.80;1.00
10443;DHT22;5269;51.146;16.986;2023-05-07T14:39:39;10.70;1.00
10443;DHT22;5269;51.146;16.986;2023-05-07T14:42:06;10.70;1.00
10443;DHT22;5269;51.146;16.986;2023-05-07T14:44:34;10.70;1.00
10443;DHT22;5269;51.146;16.986;2023-05-07T14:47:01;10.80;1.00
10443;DHT22;5269;51.146;16.986;2023-05-07T14:49:28;10.80;1.00
10443;DHT22;5269;51.146;16.986;2023-05-07T14:51:57;10.90;1.00
10443;DHT22;5269;51.146;16.986;2023-05-07T14:54:26;10.90;1.00
10443;DHT22;5269;51.146;16.986;2023-05-07T14:56:55;11.00;1.00
10443;DHT22;5269;51.146;16.986;2023-05-07T14:59:22;11.00;1.00
10443;DHT22;5269;51.146;16.986;2023-05-07T15:01:50;11.00;1.00
10443;DHT22;5269;51.146;16.986;2023-05-07T15:04:17;11.00;99.90
10443;DHT22;5269;51.146;16.986;2023-05-07T15:06:44;11.00;99.90
10443;DHT22;5269;51.146;16.986;2023-05-07T15:09:11;11.00;1.00
10443;DHT22;5269;51.146;16.986;2023-05-07T15:11:40;10.90;1.00
10443;DHT22;5269;51.146;16.986;2023-05-07T15:14:07;10.90;1.00
10443;DHT22;5269;51.146;16.986;2023-05-07T15:16:34;10.90;99.90
10443;DHT22;5269;51.146;16.986;2023-05-07T15:19:01;10.90;1.00
10443;DHT22;5269;51.146;16.986;2023-05-07T15:21:28;10.80;1.00
10443;DHT22;5269;51.146;16.986;2023-05-07T15:23:56;10.90;1.00
10443;DHT22;5269;51.146;16.986;2023-05-07T15:26:23;10.90;1.00
10443;DHT22;5269;51.146;16.986;2023-05-07T15:28:52;10.90;1.00
10443;DHT22;5269;51.146;16.986;2023-05-07T15:31:21;10.90;1.00
10443;DHT22;5269;51.146;16.986;2023-05-07T15:33:49;10.90;1.00
10443;DHT22;5269;51.146;16.986;2023-05-07T15:36:17;10.80;1.00
10443;DHT22;5269;51.146;16.986;2023-05-07T15:38:44;10.80;1.00
10443;DHT22;5269;51.146;16.986;2023-05-07T15:41:11;10.80;1.00
10443;DHT22;5269;51.146;16.986;2023-05-07T15:43:44;10.80;1.00
10443;DHT22;5269;51.146;16.986;2023-05-07T15:46:17;10.70;1.00
10443;DHT22;5269;51.146;16.986;2023-05-07T15:48:44;10.70;1.00
10443;DHT22;5269;51.146;16.986;2023-05-07T15:51:11;10.80;1.00
10443;DHT22;5269;51.146;16.986;2023-05-07T15:53:38;10.70;1.00
10443;DHT22;5269;51.146;16.986;2023-05-07T15:56:05;10.70;1.00
10443;DHT22;5269;51.146;16.986;2023-05-07T15:58:33;10.60;1.00
10443;DHT22;5269;51.146;16.986;2023-05-07T16:01:00;10.50;1.00
10443;DHT22;5269;51.146;16.986;2023-05-07T16:03:31;10.50;1.00
10443;DHT22;5269;51.146;16.986;2023-05-07T16:05:59;10.50;1.00
10443;DHT22;5269;51.146;16.986;2023-05-07T16:08:26;10.40;97.50
10443;DHT22;5269;51.146;16.986;2023-05-07T16:10:53;10.40;99.90
10443;DHT22;5269;51.146;16.986;2023-05-07T16:13:20;10.40;1.00